createdAt,value
2023-10-17T00:01:55.747Z,5.57
2023-10-17T00:04:22.810Z,5.51
2023-10-17T00:07:03.474Z,5.47
2023-10-17T00:09:31.564Z,5.44
2023-10-17T00:12:07.085Z,5.43
2023-10-17T00:14:45.547Z,5.41
2023-10-17T00:17:16.954Z,5.39
2023-10-17T00:19:45.370Z,5.39
2023-10-17T00:22:24.717Z,5.41
2023-10-17T00:25:10.108Z,5.41
2023-10-17T00:27:37.708Z,5.42
2023-10-17T00:30:05.598Z,5.40
2023-10-17T00:32:36.124Z,5.37
2023-10-17T00:35:13.706Z,5.31
2023-10-17T00:37:40.652Z,5.26
2023-10-17T00:40:27.707Z,5.20
2023-10-17T00:42:54.760Z,5.11
2023-10-17T00:45:22.030Z,5.05
2023-10-17T00:47:49.060Z,4.99
2023-10-17T00:50:16.079Z,4.95
2023-10-17T00:52:42.907Z,4.93
2023-10-17T00:55:12.415Z,4.85
2023-10-17T00:57:40.394Z,4.80
2023-10-17T01:00:17.076Z,4.76
2023-10-17T01:02:46.830Z,4.71
2023-10-17T01:05:14.023Z,4.62
2023-10-17T01:07:41.144Z,4.55
2023-10-17T01:10:10.843Z,4.51
2023-10-17T01:12:45.818Z,4.47
2023-10-17T01:15:21.347Z,4.44
2023-10-17T01:17:48.988Z,4.42
2023-10-17T01:20:21.871Z,4.41
2023-10-17T01:22:48.964Z,4.42
2023-10-17T01:25:25.746Z,4.45
2023-10-17T01:27:57.936Z,4.45
2023-10-17T01:30:29.823Z,4.42
2023-10-17T01:32:57.797Z,4.39
2023-10-17T01:35:24.995Z,4.36
2023-10-17T01:37:53.168Z,4.35
2023-10-17T01:40:29.192Z,4.33
2023-10-17T01:42:59.543Z,4.31
2023-10-17T01:45:27.436Z,4.30
2023-10-17T01:47:54.479Z,4.31
2023-10-17T01:50:21.677Z,4.32
2023-10-17T01:52:49.725Z,4.34
2023-10-17T01:55:16.694Z,4.35
2023-10-17T01:57:44.908Z,4.37
2023-10-17T02:00:24.720Z,4.38
2023-10-17T02:02:55.755Z,4.41
2023-10-17T02:05:26.224Z,4.45
2023-10-17T02:07:55.357Z,4.44
2023-10-17T02:10:24.924Z,4.44
2023-10-17T02:12:52.734Z,4.45
2023-10-17T02:15:20.256Z,4.46
2023-10-17T02:17:47.862Z,4.47
2023-10-17T02:20:31.354Z,4.48
2023-10-17T02:23:00.246Z,4.48
2023-10-17T02:25:35.797Z,4.45
2023-10-17T02:28:03.193Z,4.44
2023-10-17T02:30:30.347Z,4.44
2023-10-17T02:32:57.619Z,4.44
2023-10-17T02:35:39.792Z,4.45
2023-10-17T02:38:07.175Z,4.45
2023-10-17T02:40:42.855Z,4.43
2023-10-17T02:43:13.085Z,4.42
2023-10-17T02:45:42.231Z,4.41
2023-10-17T02:48:38.152Z,4.42
2023-10-17T02:51:11.864Z,4.44
2023-10-17T02:53:44.075Z,4.46
2023-10-17T02:56:20.355Z,4.49
2023-10-17T02:58:51.742Z,4.50
2023-10-17T03:01:18.925Z,4.51
2023-10-17T03:03:51.742Z,4.52
2023-10-17T03:06:19.885Z,4.52
2023-10-17T03:09:01.204Z,4.51
2023-10-17T03:11:36.258Z,4.50
2023-10-17T03:14:13.404Z,4.48
2023-10-17T03:16:44.110Z,4.45
2023-10-17T03:19:13.747Z,4.42
2023-10-17T03:21:44.481Z,4.39
2023-10-17T03:24:13.725Z,4.37
2023-10-17T03:26:40.690Z,4.31
2023-10-17T03:29:16.625Z,4.24
2023-10-17T03:31:43.709Z,4.21
2023-10-17T03:34:13.541Z,4.18
2023-10-17T03:36:40.346Z,4.13
2023-10-17T03:39:27.305Z,4.09
2023-10-17T03:42:02.070Z,4.07
2023-10-17T03:44:31.964Z,4.03
2023-10-17T03:47:04.932Z,3.98
2023-10-17T03:49:37.312Z,3.92
2023-10-17T03:52:05.596Z,3.87
2023-10-17T03:54:32.472Z,3.83
2023-10-17T03:57:05.547Z,3.79
2023-10-17T03:59:39.517Z,3.75
2023-10-17T04:02:07.123Z,3.71
2023-10-17T04:04:36.780Z,3.68
2023-10-17T04:07:07.081Z,3.63
2023-10-17T04:09:50.445Z,3.61
2023-10-17T04:12:21.910Z,3.58
2023-10-17T04:14:55.507Z,3.54
2023-10-17T04:17:24.997Z,3.52
2023-10-17T04:19:59.527Z,3.51
2023-10-17T04:22:30.259Z,3.51
2023-10-17T04:25:01.526Z,3.52
2023-10-17T04:27:34.788Z,3.54
2023-10-17T04:30:01.675Z,3.58
2023-10-17T04:32:29.854Z,3.61
2023-10-17T04:34:56.699Z,3.64
2023-10-17T04:37:32.520Z,3.68
2023-10-17T04:40:18.460Z,3.73
2023-10-17T04:42:53.656Z,3.80
2023-10-17T04:45:29.330Z,3.87
2023-10-17T04:48:12.028Z,3.94
2023-10-17T04:50:46.362Z,4.04
2023-10-17T04:53:28.136Z,4.12
2023-10-17T04:56:12.180Z,4.22
2023-10-17T04:58:45.003Z,4.32
2023-10-17T05:01:41.307Z,4.42
2023-10-17T05:04:14.481Z,4.56
2023-10-17T05:06:56.592Z,4.68
2023-10-17T05:09:30.134Z,4.81
2023-10-17T05:12:15.776Z,4.97
2023-10-17T05:15:01.174Z,5.08
2023-10-17T05:17:46.698Z,5.22
2023-10-17T05:20:32.635Z,5.32
2023-10-17T05:23:18.307Z,5.44
2023-10-17T05:26:23.447Z,5.57
2023-10-17T05:29:12.981Z,5.76
2023-10-17T05:32:01.984Z,5.92
2023-10-17T05:34:50.344Z,6.10
2023-10-17T05:37:36.033Z,6.27
2023-10-17T05:40:21.925Z,6.44
2023-10-17T05:43:07.943Z,6.66
2023-10-17T05:45:53.790Z,6.84
2023-10-17T05:48:40.610Z,7.02
2023-10-17T05:51:26.310Z,7.18
2023-10-17T05:54:47.419Z,7.33
2023-10-17T05:57:17.086Z,7.53
2023-10-17T06:00:02.710Z,7.73
2023-10-17T06:02:50.515Z,7.98
2023-10-17T06:05:36.331Z,8.24
2023-10-17T06:08:21.940Z,8.53
2023-10-17T06:11:14.362Z,8.78
2023-10-17T06:13:59.936Z,8.96
2023-10-17T06:16:55.966Z,9.07
2023-10-17T06:19:24.856Z,9.28
2023-10-17T06:22:00.944Z,9.48
2023-10-17T06:24:44.136Z,9.67
2023-10-17T06:27:30.073Z,9.87
2023-10-17T06:29:56.806Z,10.09
2023-10-17T06:32:23.531Z,10.28
2023-10-17T06:35:03.916Z,10.39
2023-10-17T06:37:33.559Z,10.45
2023-10-17T06:40:00.648Z,10.51
2023-10-17T06:42:33.871Z,10.61
2023-10-17T06:45:07.807Z,10.77
2023-10-17T06:47:49.054Z,11.01
2023-10-17T06:50:16.447Z,11.26
2023-10-17T06:52:53.094Z,11.49
2023-10-17T06:55:29.117Z,11.76
2023-10-17T06:57:58.524Z,12.05
2023-10-17T07:00:25.418Z,12.29
2023-10-17T07:02:57.492Z,12.53
2023-10-17T07:05:25.224Z,12.69
2023-10-17T07:08:00.689Z,12.85
2023-10-17T07:10:30.242Z,13.09
2023-10-17T07:13:36.786Z,13.31
2023-10-17T07:16:11.983Z,13.55
2023-10-17T07:18:42.317Z,13.85
2023-10-17T07:21:15.296Z,14.13
2023-10-17T07:23:46.480Z,14.42
2023-10-17T07:26:26.391Z,14.64
2023-10-17T07:28:53.670Z,14.88
2023-10-17T07:31:21.003Z,15.15
2023-10-17T07:33:54.075Z,15.41
2023-10-17T07:36:21.044Z,15.64
2023-10-17T07:38:47.963Z,15.94
2023-10-17T07:41:15.128Z,16.30
2023-10-17T07:43:45.133Z,16.53
2023-10-17T07:46:17.857Z,16.56
2023-10-17T07:48:51.274Z,16.71
2023-10-17T07:51:18.781Z,16.83
2023-10-17T07:53:48.277Z,16.83
2023-10-17T07:56:21.875Z,16.90
2023-10-17T07:58:57.527Z,17.09
2023-10-17T08:01:33.021Z,17.33
2023-10-17T08:04:14.493Z,17.54
2023-10-17T08:06:41.671Z,17.62
2023-10-17T08:09:29.666Z,17.71
2023-10-17T08:12:03.769Z,17.86
2023-10-17T08:14:41.407Z,18.05
2023-10-17T08:17:12.198Z,18.33
2023-10-17T08:19:57.995Z,18.52
2023-10-17T08:22:28.208Z,18.76
2023-10-17T08:24:58.438Z,18.97
2023-10-17T08:27:25.246Z,19.11
2023-10-17T08:29:58.523Z,19.20
2023-10-17T08:32:28.316Z,19.32
2023-10-17T08:34:59.136Z,19.46
2023-10-17T08:37:31.211Z,19.66
2023-10-17T08:39:58.128Z,19.85
2023-10-17T08:42:30.822Z,19.96
2023-10-17T08:44:58.585Z,20.12
2023-10-17T08:47:31.761Z,20.26
2023-10-17T08:50:05.815Z,20.38
2023-10-17T08:52:38.579Z,20.54
2023-10-17T08:55:05.633Z,20.58
2023-10-17T08:57:32.784Z,20.59
2023-10-17T09:00:20.293Z,20.61
2023-10-17T09:03:03.250Z,20.61
2023-10-17T09:05:31.174Z,20.60
2023-10-17T09:07:59.277Z,20.54
2023-10-17T09:10:41.532Z,20.44
2023-10-17T09:13:17.691Z,20.43
2023-10-17T09:15:58.313Z,20.48
2023-10-17T09:18:28.764Z,20.60
2023-10-17T09:20:56.610Z,20.69
2023-10-17T09:23:25.022Z,20.77
2023-10-17T09:26:07.828Z,20.89
2023-10-17T09:28:36.447Z,20.89
2023-10-17T09:31:14.188Z,20.81
2023-10-17T09:33:44.229Z,20.65
2023-10-17T09:36:12.088Z,20.58
2023-10-17T09:38:44.553Z,20.56
2023-10-17T09:41:21.166Z,20.52
2023-10-17T09:43:49.924Z,20.61
2023-10-17T09:46:18.719Z,20.65
2023-10-17T09:48:49.571Z,20.59
2023-10-17T09:51:20.525Z,20.65
2023-10-17T09:53:53.652Z,20.69
2023-10-17T09:56:32.395Z,20.71
2023-10-17T09:59:03.441Z,20.79
2023-10-17T10:01:32.063Z,20.77
2023-10-17T10:04:02.261Z,20.81
2023-10-17T10:06:33.380Z,20.83
2023-10-17T10:09:07.067Z,20.80
2023-10-17T10:11:49.475Z,20.80
2023-10-17T10:14:17.075Z,20.86
2023-10-17T10:16:49.969Z,21.01
2023-10-17T10:19:17.358Z,21.08
2023-10-17T10:21:54.731Z,21.20
2023-10-17T10:24:25.092Z,21.20
2023-10-17T10:27:14.861Z,21.23
2023-10-17T10:29:42.210Z,21.27
2023-10-17T10:32:29.206Z,21.34
2023-10-17T10:34:56.483Z,21.44
2023-10-17T10:37:23.397Z,21.53
2023-10-17T10:40:17.376Z,21.63
2023-10-17T10:42:45.085Z,21.73
2023-10-17T10:45:41.495Z,21.81
2023-10-17T10:48:27.226Z,21.90
2023-10-17T10:50:57.227Z,22.00
2023-10-17T10:53:25.593Z,22.09
2023-10-17T10:55:56.398Z,22.18
2023-10-17T10:58:26.731Z,22.34
2023-10-17T11:00:55.310Z,22.49
2023-10-17T11:03:23.156Z,22.72
2023-10-17T11:05:53.255Z,22.80
2023-10-17T11:08:21.142Z,22.88
2023-10-17T11:10:47.951Z,23.15
2023-10-17T11:13:16.180Z,23.36
2023-10-17T11:15:47.086Z,23.57
2023-10-17T11:18:16.054Z,23.86
2023-10-17T11:20:43.163Z,24.29
2023-10-17T11:23:14.210Z,24.66
2023-10-17T11:25:45.972Z,24.89
2023-10-17T11:28:16.879Z,25.08
2023-10-17T11:30:45.871Z,25.27
2023-10-17T11:33:15.231Z,25.53
2023-10-17T11:35:50.071Z,25.79
2023-10-17T11:38:44.141Z,25.88
2023-10-17T11:41:16.321Z,26.03
2023-10-17T11:43:51.770Z,26.12
2023-10-17T11:46:29.608Z,26.40
2023-10-17T11:49:21.569Z,26.70
2023-10-17T11:52:00.441Z,26.82
2023-10-17T11:54:34.659Z,26.69
2023-10-17T11:57:13.280Z,26.36
2023-10-17T11:59:59.276Z,25.86
2023-10-17T12:02:26.578Z,25.47
2023-10-17T12:04:53.869Z,25.16
2023-10-17T12:07:20.812Z,24.88
2023-10-17T12:09:47.692Z,24.68
2023-10-17T12:12:19.638Z,24.62
2023-10-17T12:14:48.095Z,24.56
2023-10-17T12:17:19.678Z,24.47
2023-10-17T12:19:47.652Z,24.36
2023-10-17T12:22:14.450Z,24.17
2023-10-17T12:24:43.306Z,23.94
2023-10-17T12:27:13.174Z,23.67
2023-10-17T12:29:40.409Z,23.40
2023-10-17T12:32:11.346Z,23.16
2023-10-17T12:34:40.548Z,22.98
2023-10-17T12:37:11.279Z,22.85
2023-10-17T12:39:41.075Z,22.66
2023-10-17T12:42:07.938Z,22.34
2023-10-17T12:44:34.705Z,22.08
2023-10-17T12:47:01.630Z,21.99
2023-10-17T12:49:29.084Z,21.88
2023-10-17T12:51:56.339Z,21.78
2023-10-17T12:54:27.185Z,21.76
2023-10-17T12:56:54.637Z,21.70
2023-10-17T12:59:21.483Z,21.68
2023-10-17T13:01:49.487Z,21.72
2023-10-17T13:04:16.648Z,21.72
2023-10-17T13:06:43.595Z,21.71
2023-10-17T13:09:12.134Z,21.72
2023-10-17T13:11:39.432Z,21.70
2023-10-17T13:14:06.255Z,21.69
2023-10-17T13:16:35.241Z,21.67
2023-10-17T13:19:07.314Z,21.60
2023-10-17T13:21:37.041Z,21.45
2023-10-17T13:24:07.634Z,21.12
2023-10-17T13:26:38.001Z,20.87
2023-10-17T13:29:05.523Z,20.69
2023-10-17T13:31:32.528Z,20.54
2023-10-17T13:33:59.607Z,20.39
2023-10-17T13:36:26.568Z,20.28
2023-10-17T13:38:53.821Z,20.08
2023-10-17T13:41:22.407Z,19.86
2023-10-17T13:43:49.369Z,19.64
2023-10-17T13:46:19.186Z,19.40
2023-10-17T13:48:52.032Z,19.10
2023-10-17T13:51:19.888Z,18.83
2023-10-17T13:53:47.210Z,18.59
2023-10-17T13:56:15.043Z,18.36
2023-10-17T13:58:42.640Z,18.14
2023-10-17T14:01:29.757Z,17.96
2023-10-17T14:03:57.584Z,17.70
2023-10-17T14:06:27.750Z,17.49
2023-10-17T14:08:59.893Z,17.29
2023-10-17T14:11:26.780Z,17.09
2023-10-17T14:13:54.900Z,16.99
2023-10-17T14:16:23.100Z,16.86
2023-10-17T14:19:16.092Z,16.72
2023-10-17T14:22:05.404Z,16.55
2023-10-17T14:24:51.236Z,16.37
2023-10-17T14:27:23.715Z,16.21
2023-10-17T14:29:50.865Z,16.10
2023-10-17T14:32:18.685Z,15.97
2023-10-17T14:34:45.849Z,15.84
2023-10-17T14:37:15.111Z,15.71
2023-10-17T14:39:42.680Z,15.57
2023-10-17T14:42:11.227Z,15.41
2023-10-17T14:44:37.923Z,15.24
2023-10-17T14:47:06.738Z,15.10
2023-10-17T14:49:33.406Z,14.98
2023-10-17T14:52:00.196Z,14.87
2023-10-17T14:54:26.975Z,14.75
2023-10-17T14:56:54.133Z,14.64
2023-10-17T14:59:20.854Z,14.52
2023-10-17T15:01:47.870Z,14.40
2023-10-17T15:04:15.356Z,14.27
2023-10-17T15:06:42.413Z,14.15
2023-10-17T15:09:09.641Z,14.02
2023-10-17T15:11:36.483Z,13.88
2023-10-17T15:14:04.673Z,13.75
2023-10-17T15:16:32.260Z,13.63
2023-10-17T15:19:00.318Z,13.52
2023-10-17T15:21:27.482Z,13.42
2023-10-17T15:23:54.388Z,13.31
2023-10-17T15:26:22.142Z,13.20
2023-10-17T15:28:49.452Z,13.07
2023-10-17T15:31:16.402Z,12.98
2023-10-17T15:33:45.179Z,12.89
2023-10-17T15:36:12.787Z,12.81
2023-10-17T15:38:43.854Z,12.70
2023-10-17T15:41:14.870Z,12.61
2023-10-17T15:43:41.663Z,12.52
2023-10-17T15:46:12.762Z,12.44
2023-10-17T15:48:39.682Z,12.36
2023-10-17T15:51:06.440Z,12.30
2023-10-17T15:53:33.587Z,12.24
2023-10-17T15:56:01.152Z,12.18
2023-10-17T15:58:28.823Z,12.13
2023-10-17T16:00:56.368Z,12.07
2023-10-17T16:03:24.758Z,12.01
2023-10-17T16:05:53.552Z,11.96
2023-10-17T16:08:21.329Z,11.91
2023-10-17T16:10:54.464Z,11.86
2023-10-17T16:13:22.282Z,11.80
2023-10-17T16:15:51.092Z,11.75
2023-10-17T16:18:18.628Z,11.69
2023-10-17T16:20:45.482Z,11.61
2023-10-17T16:23:12.317Z,11.56
2023-10-17T16:25:40.911Z,11.50
2023-10-17T16:28:07.855Z,11.45
2023-10-17T16:30:34.695Z,11.38
2023-10-17T16:33:01.648Z,11.33
2023-10-17T16:35:32.516Z,11.27
2023-10-17T16:37:59.319Z,11.23
2023-10-17T16:40:27.084Z,11.20
2023-10-17T16:42:53.876Z,11.18
2023-10-17T16:45:20.967Z,11.15
2023-10-17T16:47:47.876Z,11.12
2023-10-17T16:50:18.475Z,11.09
2023-10-17T16:52:48.194Z,11.03
2023-10-17T16:55:15.321Z,10.99
2023-10-17T16:57:44.385Z,10.95
2023-10-17T17:00:17.282Z,10.90
2023-10-17T17:02:47.456Z,10.82
2023-10-17T17:05:15.369Z,10.78
2023-10-17T17:07:42.192Z,10.73
2023-10-17T17:10:14.261Z,10.68
2023-10-17T17:12:45.814Z,10.65
2023-10-17T17:15:13.054Z,10.63
2023-10-17T17:17:43.995Z,10.62
2023-10-17T17:20:14.268Z,10.61
2023-10-17T17:22:43.662Z,10.62
2023-10-17T17:25:16.776Z,10.60
2023-10-17T17:27:44.010Z,10.59
2023-10-17T17:30:16.409Z,10.58
2023-10-17T17:32:43.887Z,10.56
2023-10-17T17:35:11.970Z,10.54
2023-10-17T17:37:41.736Z,10.51
2023-10-17T17:40:09.034Z,10.50
2023-10-17T17:42:35.992Z,10.47
2023-10-17T17:45:05.748Z,10.46
2023-10-17T17:47:32.749Z,10.44
2023-10-17T17:49:59.963Z,10.42
2023-10-17T17:52:27.099Z,10.40
2023-10-17T17:54:54.070Z,10.38
2023-10-17T17:57:21.423Z,10.38
2023-10-17T17:59:49.833Z,10.37
2023-10-17T18:02:20.407Z,10.36
2023-10-17T18:04:47.424Z,10.35
2023-10-17T18:07:18.085Z,10.34
2023-10-17T18:09:48.012Z,10.35
2023-10-17T18:12:15.870Z,10.33
2023-10-17T18:14:43.159Z,10.33
2023-10-17T18:17:10.676Z,10.32
2023-10-17T18:19:40.288Z,10.28
2023-10-17T18:22:07.069Z,10.25
2023-10-17T18:24:36.233Z,10.23
2023-10-17T18:27:05.293Z,10.21
2023-10-17T18:29:32.473Z,10.19
2023-10-17T18:32:02.366Z,10.18
2023-10-17T18:34:29.161Z,10.19
2023-10-17T18:36:56.579Z,10.21
2023-10-17T18:39:23.801Z,10.21
2023-10-17T18:41:50.813Z,10.21
2023-10-17T18:44:20.318Z,10.22
2023-10-17T18:46:47.684Z,10.23
2023-10-17T18:49:14.682Z,10.24
2023-10-17T18:51:41.561Z,10.25
2023-10-17T18:54:08.526Z,10.26
2023-10-17T18:56:36.130Z,10.27
2023-10-17T18:59:05.197Z,10.28
2023-10-17T19:01:32.695Z,10.29
2023-10-17T19:04:02.318Z,10.32
2023-10-17T19:06:29.228Z,10.36
2023-10-17T19:08:56.124Z,10.39
2023-10-17T19:11:23.847Z,10.41
2023-10-17T19:13:52.332Z,10.41
2023-10-17T19:16:19.792Z,10.41
2023-10-17T19:18:48.264Z,10.40
2023-10-17T19:21:15.153Z,10.38
2023-10-17T19:23:44.355Z,10.36
2023-10-17T19:26:16.096Z,10.35
2023-10-17T19:28:43.772Z,10.34
2023-10-17T19:31:11.108Z,10.31
2023-10-17T19:33:38.391Z,10.29
2023-10-17T19:36:05.746Z,10.26
2023-10-17T19:38:32.602Z,10.22
2023-10-17T19:40:59.412Z,10.18
2023-10-17T19:43:26.804Z,10.15
2023-10-17T19:45:56.891Z,10.13
2023-10-17T19:48:24.045Z,10.10
2023-10-17T19:50:52.218Z,10.05
2023-10-17T19:53:19.374Z,10.01
2023-10-17T19:55:46.940Z,9.96
2023-10-17T19:58:13.772Z,9.92
2023-10-17T20:00:42.375Z,9.86
2023-10-17T20:03:12.554Z,9.81
2023-10-17T20:05:43.587Z,9.78
2023-10-17T20:08:12.857Z,9.73
2023-10-17T20:10:39.539Z,9.69
2023-10-17T20:13:06.820Z,9.68
2023-10-17T20:15:36.099Z,9.66
2023-10-17T20:18:03.244Z,9.66
2023-10-17T20:20:30.049Z,9.65
2023-10-17T20:22:56.859Z,9.64
2023-10-17T20:25:23.790Z,9.63
2023-10-17T20:27:52.899Z,9.63
2023-10-17T20:30:23.923Z,9.63
2023-10-17T20:32:51.953Z,9.64
2023-10-17T20:35:19.261Z,9.64
2023-10-17T20:37:45.987Z,9.65
2023-10-17T20:40:14.931Z,9.68
2023-10-17T20:42:42.479Z,9.69
2023-10-17T20:45:13.235Z,9.70
2023-10-17T20:47:40.872Z,9.71
2023-10-17T20:50:09.742Z,9.72
2023-10-17T20:52:37.910Z,9.73
2023-10-17T20:55:06.240Z,9.76
2023-10-17T20:57:33.348Z,9.79
2023-10-17T21:00:00.164Z,9.84
2023-10-17T21:02:29.724Z,9.89
2023-10-17T21:04:57.072Z,9.92
2023-10-17T21:07:24.120Z,9.96
2023-10-17T21:09:51.218Z,9.99
2023-10-17T21:12:18.339Z,9.99
2023-10-17T21:14:49.412Z,9.98
2023-10-17T21:17:16.983Z,9.99
2023-10-17T21:19:43.871Z,10.00
2023-10-17T21:22:11.637Z,10.00
2023-10-17T21:24:38.715Z,9.99
2023-10-17T21:27:05.466Z,9.98
2023-10-17T21:29:32.885Z,9.96
2023-10-17T21:32:00.327Z,9.94
2023-10-17T21:34:30.031Z,9.92
2023-10-17T21:36:57.188Z,9.91
2023-10-17T21:39:25.737Z,9.89
2023-10-17T21:41:54.370Z,9.90
2023-10-17T21:44:21.786Z,9.90
2023-10-17T21:46:48.660Z,9.89
2023-10-17T21:49:15.390Z,9.87
2023-10-17T21:51:42.169Z,9.88
2023-10-17T21:54:09.006Z,9.88
2023-10-17T21:56:37.644Z,9.88
2023-10-17T21:59:04.373Z,9.89
2023-10-17T22:01:32.599Z,9.90
2023-10-17T22:03:59.450Z,9.92
2023-10-17T22:06:26.494Z,9.93
2023-10-17T22:08:57.127Z,9.95
2023-10-17T22:11:23.896Z,9.95
2023-10-17T22:13:51.021Z,9.95
2023-10-17T22:16:20.099Z,9.94
2023-10-17T22:18:47.864Z,9.92
2023-10-17T22:21:18.867Z,9.93
2023-10-17T22:23:47.425Z,9.92
2023-10-17T22:26:14.622Z,9.94
2023-10-17T22:28:41.882Z,9.95
2023-10-17T22:31:09.210Z,9.95
2023-10-17T22:33:37.027Z,9.94
2023-10-17T22:36:05.040Z,9.94
2023-10-17T22:38:31.950Z,9.95
2023-10-17T22:40:58.764Z,9.94
2023-10-17T22:43:25.532Z,9.93
2023-10-17T22:45:52.627Z,9.94
2023-10-17T22:48:19.528Z,9.95
2023-10-17T22:50:46.371Z,9.94
2023-10-17T22:53:13.793Z,9.92
2023-10-17T22:55:41.111Z,9.89
2023-10-17T22:58:08.321Z,9.86
2023-10-17T23:00:37.568Z,9.85
2023-10-17T23:03:05.716Z,9.83
2023-10-17T23:05:33.583Z,9.80
2023-10-17T23:08:01.450Z,9.80
2023-10-17T23:10:28.298Z,9.78
2023-10-17T23:12:56.143Z,9.78
2023-10-17T23:15:24.042Z,9.77
2023-10-17T23:17:50.941Z,9.74
2023-10-17T23:20:18.241Z,9.71
2023-10-17T23:22:45.671Z,9.68
2023-10-17T23:25:13.195Z,9.67
2023-10-17T23:27:40.605Z,9.66
2023-10-17T23:30:10.116Z,9.66
2023-10-17T23:32:40.666Z,9.68
2023-10-17T23:35:08.889Z,9.67
2023-10-17T23:37:37.040Z,9.66
2023-10-17T23:40:05.300Z,9.65
2023-10-17T23:42:32.930Z,9.63
2023-10-17T23:44:59.631Z,9.61
2023-10-17T23:47:26.364Z,9.60
2023-10-17T23:49:55.206Z,9.58
2023-10-17T23:52:22.465Z,9.56
2023-10-17T23:54:49.404Z,9.53
2023-10-17T23:57:17.889Z,9.51
2023-10-17T23:59:47.610Z,9.48
